Time;durP1;ratioP1;P1;durP2;ratioP2;P2;SDS_P1;SDS_P2;PMS_P1;PMS_P2;Temp;Humidity;BMP_temperature;BMP_pressure;BME280_temperature;BME280_humidity;BME280_pressure;Samples;Min_cycle;Max_cycle;Signal;HPM_P1;HPM_P2
2023/07/31 00:01:36;;;;;;;7.50;2.30;;;18.50;99.90;;;;;;4993775;28;20472;-47
2023/07/31 00:04:03;;;;;;;3.43;1.77;;;18.60;99.90;;;;;;4993430;28;20444;-46
2023/07/31 00:06:30;;;;;;;4.27;2.20;;;18.50;99.90;;;;;;4993043;28;20534;-47
2023/07/31 00:08:56;;;;;;;1.97;1.27;;;18.40;99.90;;;;;;4992727;28;20441;-47
2023/07/31 00:11:24;;;;;;;3.80;2.00;;;18.50;99.90;;;;;;4992544;28;20941;-47
2023/07/31 00:13:51;;;;;;;5.27;2.10;;;18.40;99.90;;;;;;4991098;28;20449;-48
2023/07/31 00:16:17;;;;;;;3.97;2.30;;;18.40;99.90;;;;;;4992313;28;20811;-48
2023/07/31 00:18:44;;;;;;;3.13;1.97;;;18.20;99.90;;;;;;4991708;28;20485;-48
2023/07/31 00:21:11;;;;;;;6.10;2.07;;;18.30;99.90;;;;;;4992122;28;20452;-48
2023/07/31 00:23:37;;;;;;;3.63;1.80;;;18.20;99.90;;;;;;4992008;28;20416;-48
2023/07/31 00:26:04;;;;;;;3.93;1.90;;;18.30;99.90;;;;;;4992205;28;20433;-47
2023/07/31 00:28:32;;;;;;;4.23;1.73;;;18.20;99.90;;;;;;4990834;28;20437;-47
2023/07/31 00:30:58;;;;;;;3.37;1.70;;;18.10;99.90;;;;;;4997122;28;20549;-47
2023/07/31 00:33:26;;;;;;;3.90;1.87;;;18.20;99.90;;;;;;4994488;28;20468;-46
2023/07/31 00:35:53;;;;;;;2.17;1.33;;;18.30;99.90;;;;;;4995784;28;20411;-46
2023/07/31 00:38:19;;;;;;;4.27;1.87;;;18.30;99.90;;;;;;4995677;28;20472;-46
2023/07/31 00:40:46;;;;;;;4.27;1.80;;;18.20;99.90;;;;;;4995557;28;20989;-48
2023/07/31 00:43:13;;;;;;;3.97;1.77;;;18.60;99.90;;;;;;4995986;28;20412;-47
2023/07/31 00:45:42;;;;;;;4.07;1.90;;;18.20;99.90;;;;;;4994102;28;20449;-46
2023/07/31 00:48:09;;;;;;;4.03;2.10;;;18.00;99.90;;;;;;4995155;28;20439;-45
2023/07/31 00:50:36;;;;;;;3.23;1.77;;;18.20;99.90;;;;;;4995790;28;20481;-46
2023/07/31 00:53:03;;;;;;;4.80;1.93;;;18.00;99.90;;;;;;4995883;28;20441;-49
2023/07/31 00:55:30;;;;;;;4.27;2.00;;;18.30;99.90;;;;;;4994355;28;20944;-51
2023/07/31 00:57:57;;;;;;;5.57;2.40;;;18.30;99.90;;;;;;4995591;28;21000;-46
2023/07/31 01:00:24;;;;;;;6.80;2.87;;;18.20;99.90;;;;;;4996308;28;20403;-46
2023/07/31 01:02:52;;;;;;;8.10;2.37;;;18.50;99.90;;;;;;4994191;28;20488;-47
2023/07/31 01:05:25;;;;;;;6.03;2.90;;;18.20;99.90;;;;;;4994909;28;20479;-47
2023/07/31 01:07:57;;;;;;;3.90;2.27;;;18.20;99.90;;;;;;4995042;28;20475;-47
2023/07/31 01:10:29;;;;;;;3.43;2.13;;;18.20;99.90;;;;;;4995434;28;20928;-46
2023/07/31 01:12:58;;;;;;;3.50;2.40;;;18.30;99.90;;;;;;4994911;28;20411;-46
2023/07/31 01:15:25;;;;;;;4.10;2.30;;;18.30;99.90;;;;;;4994888;28;20403;-46
2023/07/31 01:17:52;;;;;;;5.27;2.47;;;18.30;99.90;;;;;;4993477;28;20476;-47
2023/07/31 01:20:23;;;;;;;3.40;1.93;;;18.50;99.90;;;;;;4994636;28;20884;-47
2023/07/31 01:23:09;;;;;;;3.50;2.30;;;18.30;99.90;;;;;;4994678;28;20419;-46
2023/07/31 01:26:09;;;;;;;5.20;2.17;;;18.20;99.90;;;;;;4994837;28;20411;-46
2023/07/31 01:28:46;;;;;;;5.20;2.37;;;18.30;99.90;;;;;;4995041;28;20469;-47
2023/07/31 01:31:17;;;;;;;6.03;2.60;;;18.30;99.90;;;;;;4995192;28;20458;-46
2023/07/31 01:33:43;;;;;;;5.90;2.40;;;18.10;99.90;;;;;;4994955;28;20443;-46
2023/07/31 01:36:11;;;;;;;4.23;2.50;;;18.30;99.90;;;;;;4994859;28;20441;-47
2023/07/31 01:38:58;;;;;;;3.00;2.37;;;18.30;99.90;;;;;;4994139;28;20817;-47
2023/07/31 01:41:29;;;;;;;6.70;2.97;;;18.30;99.90;;;;;;4993590;28;20480;-47
2023/07/31 01:43:56;;;;;;;4.30;2.60;;;18.30;99.90;;;;;;4994623;28;20443;-47
2023/07/31 01:46:24;;;;;;;3.33;1.93;;;18.30;99.90;;;;;;4993096;28;20500;-47
2023/07/31 01:48:51;;;;;;;4.53;2.60;;;18.30;99.90;;;;;;4993011;28;20448;-48
2023/07/31 01:51:18;;;;;;;6.73;2.97;;;18.30;99.90;;;;;;4992832;28;20526;-45
2023/07/31 01:53:45;;;;;;;6.70;2.30;;;18.30;99.90;;;;;;4993234;28;20470;-48
2023/07/31 01:56:13;;;;;;;5.30;2.33;;;18.30;99.90;;;;;;4994764;28;20464;-47
2023/07/31 01:58:43;;;;;;;6.53;3.30;;;18.30;99.90;;;;;;4992363;28;20450;-47
2023/07/31 02:01:10;;;;;;;4.37;2.50;;;18.40;99.90;;;;;;4992533;28;20455;-45
2023/07/31 02:03:37;;;;;;;6.40;2.37;;;18.40;99.90;;;;;;4992753;28;20480;-46
2023/07/31 02:06:04;;;;;;;4.07;2.70;;;18.40;99.90;;;;;;4992506;28;20555;-45
2023/07/31 02:08:31;;;;;;;4.50;2.30;;;18.40;99.90;;;;;;4992277;28;20851;-46
2023/07/31 02:10:58;;;;;;;3.27;2.20;;;18.40;99.90;;;;;;4992285;28;20465;-46
2023/07/31 02:13:27;;;;;;;5.03;2.60;;;18.40;99.90;;;;;;4992573;28;20464;-46
2023/07/31 02:15:56;;;;;;;3.87;2.50;;;18.40;99.90;;;;;;4993203;28;20547;-48
2023/07/31 02:18:23;;;;;;;7.53;2.63;;;18.40;99.90;;;;;;4992333;28;20472;-46
2023/07/31 02:20:51;;;;;;;4.53;2.90;;;18.40;99.90;;;;;;4993601;28;20825;-46
2023/07/31 02:23:20;;;;;;;4.70;2.70;;;18.40;99.90;;;;;;4992256;28;20531;-47
2023/07/31 02:25:47;;;;;;;3.70;2.80;;;18.40;99.90;;;;;;4992372;28;20453;-46
2023/07/31 02:28:14;;;;;;;4.57;2.87;;;18.50;99.90;;;;;;4992133;28;20543;-48
2023/07/31 02:30:46;;;;;;;6.23;3.03;;;18.40;99.90;;;;;;4993624;28;20467;-46
2023/07/31 02:33:15;;;;;;;4.63;2.77;;;18.40;99.90;;;;;;4992023;28;20979;-46
2023/07/31 02:35:42;;;;;;;6.97;3.10;;;18.40;99.90;;;;;;4992036;28;20796;-47
2023/07/31 02:38:09;;;;;;;4.30;3.17;;;18.40;99.90;;;;;;4992839;28;20488;-47
2023/07/31 02:40:36;;;;;;;3.20;2.70;;;18.50;99.90;;;;;;4992255;28;20480;-49
2023/07/31 02:43:03;;;;;;;5.60;2.80;;;18.40;99.90;;;;;;4993060;28;21043;-47
2023/07/31 02:45:30;;;;;;;4.43;2.87;;;18.40;99.90;;;;;;4992152;28;20489;-47
2023/07/31 02:47:57;;;;;;;4.43;3.33;;;18.50;99.90;;;;;;4991671;28;20463;-47
2023/07/31 02:50:25;;;;;;;3.67;3.03;;;18.40;99.90;;;;;;4991727;28;20547;-47
2023/07/31 02:52:57;;;;;;;4.53;3.40;;;18.40;99.90;;;;;;4993257;28;20924;-49
2023/07/31 02:55:24;;;;;;;5.37;3.30;;;18.40;99.90;;;;;;4992004;28;20563;-49
2023/07/31 02:57:53;;;;;;;4.20;2.53;;;18.40;99.90;;;;;;4991573;28;20451;-47
2023/07/31 03:00:21;;;;;;;6.53;3.07;;;18.40;99.90;;;;;;4991509;28;20451;-47
2023/07/31 03:02:48;;;;;;;7.07;3.10;;;18.30;99.90;;;;;;4991673;28;20518;-47
2023/07/31 03:05:15;;;;;;;6.50;3.03;;;18.30;99.90;;;;;;4991526;28;20423;-47
2023/07/31 03:07:48;;;;;;;10.33;4.90;;;18.30;99.90;;;;;;4991486;28;20480;-49
2023/07/31 03:10:15;;;;;;;5.93;3.53;;;18.70;99.90;;;;;;4992021;28;20996;-49
2023/07/31 03:12:42;;;;;;;4.87;3.30;;;18.40;99.90;;;;;;4991695;28;20461;-50
2023/07/31 03:15:10;;;;;;;10.23;3.57;;;18.40;99.90;;;;;;4992647;28;20424;-47
2023/07/31 03:17:39;;;;;;;4.20;3.23;;;18.30;99.90;;;;;;4991064;28;20452;-46
2023/07/31 03:20:10;;;;;;;4.77;2.90;;;18.40;99.90;;;;;;4991258;28;20426;-46
2023/07/31 03:22:37;;;;;;;5.60;3.50;;;18.40;99.90;;;;;;4991398;28;20457;-47
2023/07/31 03:25:07;;;;;;;7.30;4.03;;;18.50;99.90;;;;;;4991538;28;20872;-47
2023/07/31 03:27:36;;;;;;;5.63;3.90;;;18.40;99.90;;;;;;4991183;28;20518;-48
2023/07/31 03:30:07;;;;;;;4.67;3.67;;;18.30;99.90;;;;;;4992710;28;20468;-48
2023/07/31 03:32:40;;;;;;;8.60;3.90;;;18.30;99.90;;;;;;4992690;28;20519;-50
2023/07/31 03:35:08;;;;;;;5.43;3.60;;;18.30;99.90;;;;;;4991742;28;20444;-47
2023/07/31 03:37:35;;;;;;;8.17;4.27;;;18.50;99.90;;;;;;4991119;28;20532;-47
2023/07/31 03:40:02;;;;;;;7.20;4.10;;;18.30;99.90;;;;;;4992767;28;20411;-48
2023/07/31 03:42:39;;;;;;;7.63;4.70;;;18.30;99.90;;;;;;5033869;23;21018;-55
2023/07/31 03:45:07;;;;;;;10.97;4.27;;;18.30;99.90;;;;;;5010886;28;20421;-55
2023/07/31 03:47:34;;;;;;;7.23;4.60;;;18.30;99.90;;;;;;5011509;28;20426;-57
2023/07/31 03:50:01;;;;;;;5.30;4.30;;;18.20;99.90;;;;;;5010672;28;20446;-55
2023/07/31 03:52:31;;;;;;;6.80;4.13;;;18.50;99.90;;;;;;5011719;28;20513;-54
2023/07/31 03:54:57;;;;;;;4.90;4.30;;;18.30;99.90;;;;;;5010387;28;20483;-54
2023/07/31 03:57:24;;;;;;;4.40;3.97;;;18.30;99.90;;;;;;5011490;28;20512;-55
2023/07/31 03:59:53;;;;;;;7.83;5.30;;;18.30;99.90;;;;;;5010525;28;20495;-54
2023/07/31 04:02:20;;;;;;;8.10;4.37;;;18.30;99.90;;;;;;5011967;28;20493;-54
2023/07/31 04:04:47;;;;;;;8.93;4.20;;;18.20;99.90;;;;;;5014192;28;20440;-56
2023/07/31 04:07:14;;;;;;;6.70;4.60;;;18.30;99.90;;;;;;5015280;28;20467;-55
2023/07/31 04:09:41;;;;;;;9.40;4.70;;;18.30;99.90;;;;;;5015702;28;20894;-56
2023/07/31 04:12:08;;;;;;;8.00;4.40;;;18.30;99.90;;;;;;5015289;28;20880;-55
2023/07/31 04:14:35;;;;;;;9.57;5.20;;;18.40;99.90;;;;;;5014275;28;20550;-55
2023/07/31 04:17:03;;;;;;;7.07;4.70;;;18.30;99.90;;;;;;5013898;28;20544;-55
2023/07/31 04:19:30;;;;;;;6.93;4.33;;;18.30;99.90;;;;;;5015128;28;20483;-56
2023/07/31 04:21:57;;;;;;;7.27;5.20;;;18.30;99.90;;;;;;5014105;28;20532;-55
2023/07/31 04:24:25;;;;;;;4.80;3.43;;;18.30;99.90;;;;;;5015401;28;20789;-56
2023/07/31 04:26:52;;;;;;;8.80;4.43;;;18.30;99.90;;;;;;5014866;28;20956;-56
2023/07/31 04:29:21;;;;;;;12.63;4.10;;;18.30;99.90;;;;;;5015165;28;20406;-56
2023/07/31 04:31:50;;;;;;;4.93;4.33;;;18.30;99.90;;;;;;5014895;28;20441;-55
2023/07/31 04:34:19;;;;;;;7.23;4.20;;;18.30;99.90;;;;;;5013585;28;20486;-55
2023/07/31 04:36:45;;;;;;;4.70;4.20;;;18.40;99.90;;;;;;5014577;28;20474;-56
2023/07/31 04:39:12;;;;;;;9.20;4.20;;;18.40;99.90;;;;;;5014872;28;20489;-55
2023/07/31 04:41:39;;;;;;;5.87;3.57;;;18.50;99.90;;;;;;5013408;28;20474;-55
2023/07/31 04:44:06;;;;;;;6.93;4.40;;;18.40;99.90;;;;;;5014856;28;20858;-55
2023/07/31 04:46:33;;;;;;;7.90;5.50;;;18.40;99.90;;;;;;5013108;28;20517;-56
2023/07/31 04:49:03;;;;;;;8.60;4.63;;;18.50;99.90;;;;;;5013212;28;20451;-54
2023/07/31 04:51:31;;;;;;;4.80;3.60;;;18.40;99.90;;;;;;5014529;28;20546;-56
2023/07/31 04:53:58;;;;;;;7.23;4.40;;;18.50;99.90;;;;;;5013324;28;20444;-56
2023/07/31 04:56:25;;;;;;;7.27;3.80;;;18.40;99.90;;;;;;5014364;28;20489;-55
2023/07/31 04:58:52;;;;;;;5.10;4.00;;;18.50;99.90;;;;;;5012687;28;20454;-54
2023/07/31 05:01:20;;;;;;;6.50;5.50;;;18.50;99.90;;;;;;5014056;28;20798;-55
2023/07/31 05:03:47;;;;;;;8.40;6.13;;;18.50;99.90;;;;;;5013134;28;20458;-55
2023/07/31 05:06:16;;;;;;;10.03;5.60;;;18.50;99.90;;;;;;5012930;28;20927;-57
2023/07/31 05:08:50;;;;;;;4.47;3.87;;;18.50;99.90;;;;;;5012145;28;20953;-55
2023/07/31 05:11:17;;;;;;;9.20;4.93;;;18.50;99.90;;;;;;5014106;28;20503;-55
2023/07/31 05:13:46;;;;;;;6.03;4.60;;;18.50;99.90;;;;;;5013885;28;20432;-56
2023/07/31 05:16:13;;;;;;;7.03;4.03;;;18.60;99.90;;;;;;5012435;28;20414;-55
2023/07/31 05:18:46;;;;;;;8.13;4.43;;;18.60;99.90;;;;;;5013622;28;20462;-55
2023/07/31 05:21:12;;;;;;;8.73;4.47;;;18.70;99.90;;;;;;5013976;28;20528;-56
2023/07/31 05:23:39;;;;;;;6.37;4.43;;;18.70;99.90;;;;;;5013878;28;20474;-55
2023/07/31 05:26:09;;;;;;;6.97;4.77;;;18.70;99.90;;;;;;5013639;28;20432;-56
2023/07/31 05:28:39;;;;;;;9.40;4.53;;;18.80;99.90;;;;;;5012271;28;20824;-55
2023/07/31 05:31:07;;;;;;;6.17;4.80;;;18.80;99.90;;;;;;5013789;28;20426;-55
2023/07/31 05:33:34;;;;;;;6.73;4.20;;;18.90;99.90;;;;;;5013648;28;20432;-55
2023/07/31 05:36:01;;;;;;;9.63;4.50;;;18.90;99.90;;;;;;5013782;28;20512;-55
2023/07/31 05:38:28;;;;;;;5.97;4.20;;;18.90;99.90;;;;;;5013171;28;20494;-55
2023/07/31 05:40:55;;;;;;;7.97;4.10;;;18.90;99.90;;;;;;5013211;28;20471;-56
2023/07/31 05:43:23;;;;;;;8.60;5.90;;;19.00;99.90;;;;;;5013703;28;20430;-55
2023/07/31 05:45:52;;;;;;;11.47;4.27;;;19.00;99.90;;;;;;5011974;28;20447;-54
2023/07/31 05:48:18;;;;;;;7.10;4.17;;;19.10;99.90;;;;;;5011871;28;20442;-54
2023/07/31 05:50:46;;;;;;;5.63;3.63;;;19.10;99.90;;;;;;5012009;28;20506;-54
2023/07/31 05:53:13;;;;;;;7.37;3.90;;;19.10;99.90;;;;;;5013294;28;20443;-56
2023/07/31 05:55:42;;;;;;;4.30;3.63;;;19.10;99.90;;;;;;5011989;28;20427;-55
2023/07/31 05:58:09;;;;;;;10.70;4.37;;;19.00;99.90;;;;;;5011887;28;20862;-55
2023/07/31 06:00:37;;;;;;;12.13;4.07;;;19.00;99.90;;;;;;5013092;28;20550;-55
2023/07/31 06:03:11;;;;;;;16.13;4.20;;;19.00;99.90;;;;;;5012009;28;20451;-55
2023/07/31 06:05:38;;;;;;;7.30;4.37;;;19.10;99.90;;;;;;5011991;28;20477;-57
2023/07/31 06:08:05;;;;;;;8.17;4.30;;;19.10;99.90;;;;;;5012735;28;20438;-55
2023/07/31 06:10:32;;;;;;;6.00;4.30;;;19.10;99.90;;;;;;5012832;28;20509;-55
2023/07/31 06:12:59;;;;;;;8.03;3.60;;;19.10;99.90;;;;;;5012986;28;20809;-56
2023/07/31 06:15:28;;;;;;;7.77;4.20;;;19.00;99.90;;;;;;5012862;28;20468;-55
2023/07/31 06:17:57;;;;;;;6.30;3.87;;;19.00;99.90;;;;;;5011825;28;20548;-56
2023/07/31 06:20:24;;;;;;;8.53;4.57;;;19.20;99.90;;;;;;5011901;28;20983;-55
2023/07/31 06:22:51;;;;;;;6.87;3.30;;;19.10;99.90;;;;;;5011727;28;20590;-55
2023/07/31 06:25:21;;;;;;;6.40;4.20;;;19.30;99.90;;;;;;5012814;28;20422;-57
2023/07/31 06:27:50;;;;;;;5.37;3.40;;;19.40;99.90;;;;;;5012041;28;20528;-57
2023/07/31 06:30:19;;;;;;;8.00;3.30;;;19.40;99.90;;;;;;5013060;28;20457;-54
2023/07/31 06:32:48;;;;;;;6.20;3.60;;;19.40;99.90;;;;;;5011518;28;20521;-57
2023/07/31 06:35:17;;;;;;;6.30;3.83;;;19.40;99.90;;;;;;5011290;28;20513;-55
2023/07/31 06:37:44;;;;;;;7.10;3.80;;;19.40;99.90;;;;;;5012169;28;20411;-55
2023/07/31 06:40:12;;;;;;;5.20;3.63;;;19.40;99.90;;;;;;5012622;28;20474;-56
2023/07/31 06:42:41;;;;;;;7.33;3.57;;;19.30;99.90;;;;;;5011214;28;20472;-55
2023/07/31 06:45:11;;;;;;;6.07;3.20;;;19.50;99.90;;;;;;5012235;28;20790;-57
2023/07/31 06:47:38;;;;;;;5.50;3.63;;;19.50;99.90;;;;;;5011781;28;20478;-56
2023/07/31 06:50:06;;;;;;;6.53;4.07;;;19.60;99.90;;;;;;5010921;28;20441;-56
2023/07/31 06:52:34;;;;;;;4.83;3.20;;;19.60;99.90;;;;;;5012157;28;20453;-55
2023/07/31 06:55:03;;;;;;;9.43;4.30;;;19.60;99.90;;;;;;5012401;28;20535;-55
2023/07/31 06:57:30;;;;;;;9.17;4.27;;;19.50;99.90;;;;;;5011907;28;20818;-55
2023/07/31 06:59:57;;;;;;;7.90;4.30;;;19.70;99.90;;;;;;5011827;28;20485;-57
2023/07/31 07:02:24;;;;;;;5.40;4.03;;;19.70;99.90;;;;;;5011893;28;20463;-56
2023/07/31 07:04:51;;;;;;;5.50;3.10;;;19.70;99.90;;;;;;5011667;28;20419;-56
2023/07/31 07:07:19;;;;;;;7.20;3.43;;;19.70;99.90;;;;;;5010397;28;20598;-55
2023/07/31 07:09:47;;;;;;;7.67;3.50;;;19.70;99.90;;;;;;5011976;28;21021;-55
2023/07/31 07:12:14;;;;;;;5.70;3.50;;;19.70;99.90;;;;;;5010492;28;20485;-56
2023/07/31 07:14:41;;;;;;;10.30;3.60;;;19.70;99.90;;;;;;5011896;28;20453;-57
2023/07/31 07:17:08;;;;;;;5.70;3.77;;;19.70;99.90;;;;;;5011554;28;20533;-55
2023/07/31 07:19:35;;;;;;;5.70;4.03;;;19.60;99.90;;;;;;5011933;28;20865;-57
2023/07/31 07:22:02;;;;;;;8.00;3.67;;;19.60;99.90;;;;;;5010459;28;20485;-55
2023/07/31 07:24:29;;;;;;;5.30;2.90;;;19.60;99.90;;;;;;5011788;28;20438;-55
2023/07/31 07:26:57;;;;;;;4.17;3.03;;;19.80;99.90;;;;;;5011226;28;20461;-56
2023/07/31 07:29:24;;;;;;;5.57;3.00;;;19.70;99.90;;;;;;5011761;28;20415;-55
2023/07/31 07:31:51;;;;;;;5.40;3.20;;;19.50;99.90;;;;;;5010490;28;20527;-55
2023/07/31 07:34:18;;;;;;;6.40;3.03;;;19.60;99.90;;;;;;5010472;28;20429;-55
2023/07/31 07:36:48;;;;;;;6.77;3.23;;;19.90;99.90;;;;;;5011477;28;20434;-55
2023/07/31 07:39:18;;;;;;;4.73;2.83;;;20.00;99.90;;;;;;5011943;28;20443;-55
2023/07/31 07:41:45;;;;;;;6.07;4.03;;;20.00;99.90;;;;;;5014129;28;20440;-54
2023/07/31 07:44:16;;;;;;;6.07;3.43;;;20.30;99.90;;;;;;5015513;28;20954;-56
2023/07/31 07:46:43;;;;;;;5.13;3.10;;;20.10;99.90;;;;;;5015356;28;20450;-55
2023/07/31 07:49:10;;;;;;;6.57;3.47;;;20.20;99.90;;;;;;5014202;28;20919;-55
2023/07/31 07:51:37;;;;;;;9.10;3.43;;;20.30;99.90;;;;;;5015465;28;20523;-55
2023/07/31 07:54:04;;;;;;;4.47;3.33;;;20.10;99.90;;;;;;5015763;28;20463;-56
2023/07/31 07:56:31;;;;;;;4.10;2.90;;;20.40;99.90;;;;;;5015447;28;20975;-58
2023/07/31 07:58:58;;;;;;;6.13;3.40;;;20.50;99.90;;;;;;5013845;28;20482;-56
2023/07/31 08:01:26;;;;;;;5.83;3.60;;;20.50;99.90;;;;;;5014011;28;20545;-55
2023/07/31 08:03:53;;;;;;;7.77;3.50;;;20.40;99.90;;;;;;5015318;28;20445;-55
2023/07/31 08:06:20;;;;;;;4.67;3.30;;;20.40;99.90;;;;;;5014227;28;20439;-55
2023/07/31 08:08:47;;;;;;;3.73;2.97;;;20.40;99.90;;;;;;5015032;28;20914;-54
2023/07/31 08:11:14;;;;;;;5.60;3.10;;;20.40;99.90;;;;;;5015160;28;21057;-56
2023/07/31 08:13:41;;;;;;;8.07;2.40;;;20.40;99.90;;;;;;5015170;28;20471;-55
2023/07/31 08:16:09;;;;;;;7.20;3.00;;;20.40;99.90;;;;;;5015021;28;20481;-56
2023/07/31 08:18:38;;;;;;;10.80;3.20;;;20.40;99.90;;;;;;5014560;28;20427;-56
2023/07/31 08:21:05;;;;;;;6.87;2.70;;;20.30;99.90;;;;;;5014870;28;20466;-56
2023/07/31 08:23:32;;;;;;;3.30;2.37;;;19.60;99.90;;;;;;5013772;28;20421;-55
2023/07/31 08:25:59;;;;;;;7.30;2.90;;;20.20;99.90;;;;;;5015012;28;20468;-55
2023/07/31 08:28:26;;;;;;;4.60;2.50;;;20.30;99.90;;;;;;5013142;28;20489;-56
2023/07/31 08:30:53;;;;;;;5.40;2.40;;;20.40;99.90;;;;;;5014671;28;20528;-55
2023/07/31 08:33:23;;;;;;;3.90;2.87;;;20.40;99.90;;;;;;5015042;28;20434;-55
2023/07/31 08:35:53;;;;;;;3.40;2.23;;;20.30;99.90;;;;;;5013123;28;20521;-55
2023/07/31 08:38:20;;;;;;;4.60;2.30;;;20.30;99.90;;;;;;5013192;28;20474;-54
2023/07/31 08:40:47;;;;;;;3.50;2.80;;;19.80;99.90;;;;;;5014218;28;20482;-55
2023/07/31 08:43:14;;;;;;;3.50;2.50;;;20.20;99.90;;;;;;5014486;28;20537;-54
2023/07/31 08:45:43;;;;;;;5.43;3.67;;;20.20;99.90;;;;;;5013282;28;20479;-55
2023/07/31 08:48:12;;;;;;;4.73;3.23;;;20.90;99.90;;;;;;5012706;28;20429;-55
2023/07/31 08:50:42;;;;;;;3.50;2.90;;;20.30;99.90;;;;;;5012532;28;20443;-56
2023/07/31 08:53:10;;;;;;;4.50;2.60;;;20.40;99.90;;;;;;5014246;28;20518;-55
2023/07/31 08:55:38;;;;;;;2.77;2.47;;;20.50;99.90;;;;;;5014311;28;20936;-55
2023/07/31 08:58:06;;;;;;;5.20;3.03;;;20.60;99.90;;;;;;5012342;28;20457;-55
2023/07/31 09:00:33;;;;;;;4.17;3.20;;;20.70;99.90;;;;;;5014148;28;20475;-54
2023/07/31 09:03:04;;;;;;;5.80;2.83;;;20.80;99.90;;;;;;5014147;28;20468;-56
2023/07/31 09:05:32;;;;;;;3.27;2.30;;;20.80;99.90;;;;;;5013030;28;21004;-55
2023/07/31 09:07:59;;;;;;;3.70;2.20;;;20.90;99.90;;;;;;5012199;28;20868;-56
2023/07/31 09:10:27;;;;;;;4.33;2.53;;;21.00;99.90;;;;;;5013845;28;20469;-54
2023/07/31 09:12:55;;;;;;;5.17;2.50;;;21.00;99.90;;;;;;5012554;28;20484;-54
2023/07/31 09:15:24;;;;;;;4.00;2.40;;;21.10;99.90;;;;;;5013805;28;20436;-54
2023/07/31 09:18:00;;;;;;;4.10;2.33;;;21.20;99.90;;;;;;5013682;28;20446;-55
2023/07/31 09:20:28;;;;;;;2.47;2.10;;;21.20;99.90;;;;;;5012470;28;20445;-54
2023/07/31 09:22:56;;;;;;;3.37;2.10;;;21.10;99.90;;;;;;5013606;28;20473;-55
2023/07/31 09:25:25;;;;;;;6.40;2.30;;;21.20;99.90;;;;;;5012821;28;20879;-55
2023/07/31 09:27:55;;;;;;;3.90;2.10;;;21.20;99.90;;;;;;5012092;28;20937;-56
2023/07/31 09:30:23;;;;;;;3.87;2.87;;;21.20;99.90;;;;;;5013312;28;20435;-56
2023/07/31 09:32:51;;;;;;;3.40;2.70;;;21.30;99.90;;;;;;5013370;28;20476;-56
2023/07/31 09:35:22;;;;;;;7.83;3.07;;;21.30;99.90;;;;;;5012350;28;20452;-55
2023/07/31 09:37:51;;;;;;;3.87;2.10;;;21.30;99.90;;;;;;5013584;28;20440;-56
2023/07/31 09:40:29;;;;;;;3.43;2.20;;;21.20;99.90;;;;;;5011925;28;20474;-56
2023/07/31 09:43:00;;;;;;;4.27;2.40;;;21.10;99.90;;;;;;5015270;28;20888;-60
2023/07/31 09:45:27;;;;;;;5.63;2.40;;;20.90;99.90;;;;;;5012328;28;20457;-58
2023/07/31 09:47:54;;;;;;;4.17;2.30;;;20.80;99.90;;;;;;5012994;28;21173;-59
2023/07/31 09:50:23;;;;;;;2.40;1.83;;;20.80;99.90;;;;;;5011860;28;20987;-59
2023/07/31 09:52:50;;;;;;;7.03;2.57;;;20.70;99.90;;;;;;5011762;28;20917;-60
2023/07/31 09:55:17;;;;;;;4.93;2.80;;;20.70;99.90;;;;;;5013437;28;20478;-59
2023/07/31 09:57:46;;;;;;;4.50;2.30;;;20.80;99.90;;;;;;5012482;28;20456;-59
2023/07/31 10:00:17;;;;;;;4.10;1.83;;;20.90;99.90;;;;;;5012889;28;20487;-58
2023/07/31 10:02:47;;;;;;;2.80;1.90;;;21.00;99.90;;;;;;5012111;28;20460;-59
2023/07/31 10:05:16;;;;;;;4.43;1.90;;;20.90;99.90;;;;;;5011761;28;20985;-60
2023/07/31 10:07:52;;;;;;;17.10;12.57;;;20.90;99.90;;;;;;5012619;28;20435;-60
2023/07/31 10:10:21;;;;;;;3.03;1.87;;;20.90;99.90;;;;;;5013018;28;20842;-59
2023/07/31 10:12:50;;;;;;;4.73;2.83;;;20.80;99.90;;;;;;5013064;28;20456;-60
2023/07/31 10:15:21;;;;;;;3.47;1.87;;;20.90;99.90;;;;;;5011536;28;20452;-58
2023/07/31 10:17:49;;;;;;;3.47;2.10;;;21.10;99.90;;;;;;5011468;28;20775;-59
2023/07/31 10:20:17;;;;;;;5.60;3.10;;;21.30;99.90;;;;;;5019582;28;20498;-59
2023/07/31 10:22:46;;;;;;;3.13;2.50;;;21.40;99.90;;;;;;5013682;28;20459;-60
2023/07/31 10:25:16;;;;;;;3.90;3.23;;;21.60;99.90;;;;;;5012904;28;20447;-59
2023/07/31 10:27:43;;;;;;;3.70;2.63;;;21.40;99.90;;;;;;5012549;28;20448;-59
2023/07/31 10:30:13;;;;;;;7.00;3.90;;;21.30;99.90;;;;;;5012266;28;20478;-58
2023/07/31 10:32:42;;;;;;;4.53;4.13;;;21.20;99.90;;;;;;5010932;28;20641;-59
2023/07/31 10:35:10;;;;;;;5.70;3.60;;;21.20;99.90;;;;;;5012642;28;20440;-59
2023/07/31 10:37:39;;;;;;;7.10;3.50;;;21.20;99.90;;;;;;5010486;28;20747;-60
2023/07/31 10:40:10;;;;;;;7.53;3.97;;;21.20;99.90;;;;;;5012343;28;20448;-60
2023/07/31 10:42:39;;;;;;;5.70;3.70;;;21.60;99.90;;;;;;5012202;28;20467;-60
2023/07/31 10:45:09;;;;;;;7.67;3.97;;;21.40;99.90;;;;;;5010831;28;20419;-58
2023/07/31 10:47:44;;;;;;;9.90;5.20;;;21.30;99.90;;;;;;5011764;28;20432;-59
2023/07/31 10:50:19;;;;;;;5.90;4.00;;;21.30;99.90;;;;;;5010965;28;20430;-57
2023/07/31 10:52:51;;;;;;;10.77;5.57;;;21.40;99.90;;;;;;5011950;28;20438;-58
2023/07/31 10:55:32;;;;;;;7.97;4.30;;;21.60;99.90;;;;;;5011805;28;20870;-58
2023/07/31 10:58:07;;;;;;;16.03;5.93;;;21.90;99.90;;;;;;5010094;28;20506;-58
2023/07/31 11:00:37;;;;;;;6.27;4.33;;;22.10;99.90;;;;;;5010538;28;20474;-58
2023/07/31 11:03:08;;;;;;;6.27;5.00;;;22.40;99.90;;;;;;5010838;28;20455;-59
2023/07/31 11:05:47;;;;;;;7.60;4.23;;;22.50;99.90;;;;;;5011872;28;20482;-60
2023/07/31 11:08:15;;;;;;;5.10;3.60;;;22.60;99.90;;;;;;5011190;28;20421;-59
2023/07/31 11:10:43;;;;;;;8.87;4.80;;;22.80;99.90;;;;;;5010352;28;20497;-59
2023/07/31 11:13:10;;;;;;;8.43;5.00;;;22.90;99.90;;;;;;5009931;28;20458;-59
2023/07/31 11:15:37;;;;;;;5.07;3.23;;;23.00;99.90;;;;;;5012141;28;20442;-59
2023/07/31 11:18:07;;;;;;;10.70;3.77;;;23.00;99.90;;;;;;5011093;28;20412;-60
2023/07/31 11:20:39;;;;;;;8.40;4.00;;;23.00;99.90;;;;;;5011209;28;20570;-60
2023/07/31 11:23:08;;;;;;;7.40;4.40;;;22.90;99.90;;;;;;5018713;28;20745;-59
2023/07/31 11:25:35;;;;;;;8.60;4.77;;;22.80;99.90;;;;;;5012666;28;20500;-60
2023/07/31 11:28:07;;;;;;;6.53;4.43;;;22.90;99.90;;;;;;5011536;28;20435;-60
2023/07/31 11:30:34;;;;;;;5.50;3.47;;;23.00;99.90;;;;;;5010132;28;20465;-60
2023/07/31 11:33:03;;;;;;;7.23;5.33;;;23.00;99.90;;;;;;5011293;28;20431;-59
2023/07/31 11:35:33;;;;;;;4.60;4.20;;;23.10;99.90;;;;;;5010555;28;20446;-61
2023/07/31 11:38:01;;;;;;;4.70;3.50;;;23.10;99.90;;;;;;5011140;28;20970;-60
2023/07/31 11:40:30;;;;;;;5.23;3.30;;;23.10;99.90;;;;;;5011229;28;20516;-59
2023/07/31 11:42:58;;;;;;;9.53;4.23;;;23.10;99.90;;;;;;5010018;28;20562;-58
2023/07/31 11:45:28;;;;;;;6.60;3.83;;;23.00;99.90;;;;;;5010132;28;20486;-62
2023/07/31 11:47:56;;;;;;;6.67;4.00;;;22.90;99.90;;;;;;5011399;28;20988;-59
2023/07/31 11:50:26;;;;;;;8.30;3.43;;;22.80;99.90;;;;;;5011470;28;20432;-59
2023/07/31 11:52:58;;;;;;;6.63;3.73;;;22.80;99.90;;;;;;5009722;28;20471;-61
2023/07/31 11:55:26;;;;;;;7.03;3.70;;;22.90;99.90;;;;;;5010147;28;20483;-61
2023/07/31 11:57:55;;;;;;;6.07;4.20;;;22.90;99.90;;;;;;5011184;28;20439;-61
2023/07/31 12:00:23;;;;;;;4.30;3.13;;;22.80;99.90;;;;;;5014703;28;20490;-59
2023/07/31 12:02:53;;;;;;;5.03;3.40;;;22.80;99.90;;;;;;5012316;28;20505;-59
2023/07/31 12:05:20;;;;;;;6.60;3.70;;;22.80;99.90;;;;;;5010060;28;20508;-58
2023/07/31 12:07:49;;;;;;;4.53;2.93;;;22.80;99.90;;;;;;5009694;28;20450;-60
2023/07/31 12:10:30;;;;;;;6.60;3.67;;;22.90;99.90;;;;;;5011453;28;20466;-60
2023/07/31 12:13:04;;;;;;;7.30;4.03;;;22.90;99.90;;;;;;5010455;28;20443;-60
2023/07/31 12:15:36;;;;;;;4.40;3.70;;;23.30;99.90;;;;;;5011450;28;20465;-60
2023/07/31 12:18:06;;;;;;;6.90;4.20;;;22.80;99.90;;;;;;5009996;28;20928;-59
2023/07/31 12:20:33;;;;;;;6.10;4.47;;;22.80;99.90;;;;;;5009785;28;20975;-60
2023/07/31 12:23:03;;;;;;;4.80;3.70;;;22.80;99.90;;;;;;5010725;28;20807;-60
2023/07/31 12:25:34;;;;;;;8.57;3.67;;;22.70;99.90;;;;;;5012832;28;20409;-59
2023/07/31 12:28:11;;;;;;;4.80;3.37;;;22.80;99.90;;;;;;5014292;28;20460;-59
2023/07/31 12:30:39;;;;;;;5.70;3.60;;;22.90;99.90;;;;;;5014467;28;21007;-59
2023/07/31 12:33:07;;;;;;;11.13;4.03;;;23.10;99.90;;;;;;5014613;28;20434;-57
2023/07/31 12:35:44;;;;;;;5.53;3.33;;;23.10;99.90;;;;;;5014783;28;20471;-60
2023/07/31 12:38:11;;;;;;;6.13;2.67;;;23.10;99.90;;;;;;5014465;28;20533;-58
2023/07/31 12:40:40;;;;;;;3.40;2.80;;;23.10;99.90;;;;;;5014200;28;20440;-59
2023/07/31 12:43:07;;;;;;;4.00;3.10;;;23.10;99.90;;;;;;5018947;28;20462;-57
2023/07/31 12:45:35;;;;;;;8.73;3.90;;;23.20;99.90;;;;;;5016737;28;20444;-60
2023/07/31 12:48:02;;;;;;;6.93;3.27;;;23.30;99.90;;;;;;5012898;28;20553;-61
2023/07/31 12:50:29;;;;;;;6.03;3.30;;;23.50;99.90;;;;;;5012853;28;20537;-59
2023/07/31 12:52:57;;;;;;;4.73;3.13;;;23.60;99.90;;;;;;5014308;28;20474;-60